Nekton — PCSX — position and weather

sailwx.info

Track history (hours):
 
Tides and Currents Weather Stations Pressure Air Temp Water Temp Dewpoint Dewpoint Depression Visibility Wind Speed Wind Dir Waves Ship Positions

Nekton

Last reported at 2017-Sep-13 16:30 UTC. Time now 2017-Sep-19 15:24 UTC.
Position N 40°03' E 023°09'.

Length 120 m; draft 4.8 m.

Type: Cargo ship. MMSI: 244860255.

Date/timePositionNaut miles runAvg speedWind from/ knotsBaromVisibWave heightAir tempDewpointWater temp
2017-Sep-13 16:30N 40°03' E 023°09'2613.2
2017-Sep-13 14:29N 39°43' E 023°32'1713.4
2017-Sep-13 13:12N 39°30' E 023°47'1 7.0
2017-Sep-13 13:00N 39°29' E 023°48'1 1.4
2017-Sep-13 12:30N 39°29' E 023°49'712.7
2017-Sep-13 12:00N 39°25' E 023°55'812.8
2017-Sep-13 11:24N 39°18' E 024°00'912.7
2017-Sep-13 10:43N 39°11' E 024°06'312.7
2017-Sep-13 10:29N 39°08' E 024°08'9312.5
2017-Sep-13 03:04N 37°41' E 024°48'112.2
2017-Sep-13 03:00N 37°40' E 024°48'612.4
2017-Sep-13 02:30N 37°36' E 024°53'612.3
2017-Sep-13 02:00N 37°31' E 024°59'612.3
2017-Sep-13 01:30N 37°27' E 025°04'612.5
2017-Sep-13 01:00N 37°22' E 025°09'612.2
2017-Sep-13 00:30N 37°19' E 025°16'612.6
2017-Sep-13 00:00N 37°18' E 025°24'612.8
2017-Sep-12 23:30N 37°17' E 025°32'712.8
2017-Sep-12 22:57N 37°15' E 025°40'512.3
2017-Sep-12 22:30N 37°13' E 025°47'38212.2
2017-Sep-11 15:12N 31°40' E 029°34'21 4.7
2017-Sep-11 10:43N 31°29' E 029°55'911.9
2017-Sep-11 09:56N 31°24' E 030°04'3 7.2
2017-Sep-11 09:30N 31°22' E 030°06'  
2017-Sep-06 04:59N 37°34' E 016°24'612.5
2017-Sep-06 04:28N 37°37' E 016°17'612.2
2017-Sep-06 04:00N 37°39' E 016°10'1112.1
2017-Sep-06 03:04N 37°44' E 015°57'112.0
2017-Sep-06 03:00N 37°45' E 015°57'611.7
2017-Sep-06 02:30N 37°47' E 015°50'611.3
2017-Sep-06 01:57N 37°50' E 015°43'511.5
2017-Sep-06 01:28N 37°54' E 015°38'612.0
2017-Sep-06 01:00N 37°59' E 015°35'612.4
2017-Sep-06 00:30N 38°05' E 015°34'611.6
2017-Sep-06 00:00N 38°11' E 015°35'713.0
2017-Sep-05 23:29N 38°16' E 015°40'612.6
2017-Sep-05 23:00N 38°22' E 015°42'612.6
2017-Sep-05 22:30N 38°28' E 015°43'712.3
2017-Sep-05 21:58N 38°35' E 015°46'812.1
2017-Sep-05 21:20N 38°41' E 015°51'  
Track history (hours):
 
Tides and Currents Weather Stations Pressure Air Temp Water Temp Dewpoint Dewpoint Depression Visibility Wind Speed Wind Dir Waves Ship Positions

Nekton

Last reported at 2017-Sep-13 16:30 UTC. Time now 2017-Sep-19 15:24 UTC.
Position N 40°03' E 023°09'.

Length 120 m; draft 4.8 m.

Type: Cargo ship. MMSI: 244860255.

Date/timePositionNaut miles runAvg speedWind from/ knotsBaromVisibWave heightAir tempDewpointWater temp
2017-Sep-13 16:30N 40°03' E 023°09'2613.2
2017-Sep-13 14:29N 39°43' E 023°32'1713.4
2017-Sep-13 13:12N 39°30' E 023°47'1 7.0
2017-Sep-13 13:00N 39°29' E 023°48'1 1.4
2017-Sep-13 12:30N 39°29' E 023°49'712.7
2017-Sep-13 12:00N 39°25' E 023°55'812.8
2017-Sep-13 11:24N 39°18' E 024°00'912.7
2017-Sep-13 10:43N 39°11' E 024°06'312.7
2017-Sep-13 10:29N 39°08' E 024°08'9312.5
2017-Sep-13 03:04N 37°41' E 024°48'112.2
2017-Sep-13 03:00N 37°40' E 024°48'612.4
2017-Sep-13 02:30N 37°36' E 024°53'612.3
2017-Sep-13 02:00N 37°31' E 024°59'612.3
2017-Sep-13 01:30N 37°27' E 025°04'612.5
2017-Sep-13 01:00N 37°22' E 025°09'612.2
2017-Sep-13 00:30N 37°19' E 025°16'612.6
2017-Sep-13 00:00N 37°18' E 025°24'612.8
2017-Sep-12 23:30N 37°17' E 025°32'712.8
2017-Sep-12 22:57N 37°15' E 025°40'512.3
2017-Sep-12 22:30N 37°13' E 025°47'38212.2
2017-Sep-11 15:12N 31°40' E 029°34'21 4.7
2017-Sep-11 10:43N 31°29' E 029°55'911.9
2017-Sep-11 09:56N 31°24' E 030°04'3 7.2
2017-Sep-11 09:30N 31°22' E 030°06'  
2017-Sep-06 04:59N 37°34' E 016°24'612.5
2017-Sep-06 04:28N 37°37' E 016°17'612.2
2017-Sep-06 04:00N 37°39' E 016°10'1112.1
2017-Sep-06 03:04N 37°44' E 015°57'112.0
2017-Sep-06 03:00N 37°45' E 015°57'611.7
2017-Sep-06 02:30N 37°47' E 015°50'611.3
2017-Sep-06 01:57N 37°50' E 015°43'511.5
2017-Sep-06 01:28N 37°54' E 015°38'612.0
2017-Sep-06 01:00N 37°59' E 015°35'612.4
2017-Sep-06 00:30N 38°05' E 015°34'611.6
2017-Sep-06 00:00N 38°11' E 015°35'713.0
2017-Sep-05 23:29N 38°16' E 015°40'612.6
2017-Sep-05 23:00N 38°22' E 015°42'612.6
2017-Sep-05 22:30N 38°28' E 015°43'712.3
2017-Sep-05 21:58N 38°35' E 015°46'812.1
2017-Sep-05 21:20N 38°41' E 015°51'  

Dump ship's entire track history